Time;durP1;ratioP1;P1;durP2;ratioP2;P2;SDS_P1;SDS_P2;PMS_P1;PMS_P2;Temp;Humidity;BMP_temperature;BMP_pressure;BME280_temperature;BME280_humidity;BME280_pressure;Samples;Min_cycle;Max_cycle;Signal;HPM_P1;HPM_P2
2022/04/10 00:00:43;;;;;;;62.97;27.93;;;0.10;99.90;;;;;;4418021;28;658811;-71
2022/04/10 00:03:30;;;;;;;54.77;27.43;;;-0.10;99.90;;;;;;4391110;28;657660;-70
2022/04/10 00:06:18;;;;;;;55.23;29.07;;;-0.10;99.90;;;;;;4404764;28;659444;-71
2022/04/10 00:09:05;;;;;;;59.38;27.85;;;-0.20;99.90;;;;;;4395420;28;658984;-71
2022/04/10 00:11:54;;;;;;;50.53;25.53;;;-0.30;99.90;;;;;;4409958;28;659361;-70
2022/04/10 00:14:41;;;;;;;50.70;25.30;;;-0.50;99.90;;;;;;4396160;28;658854;-70
2022/04/10 00:17:29;;;;;;;56.20;25.97;;;-0.50;99.90;;;;;;4419071;28;658876;-71
2022/04/10 00:20:16;;;;;;;56.03;25.87;;;-0.60;99.90;;;;;;4395894;28;658639;-71
2022/04/10 00:23:05;;;;;;;56.00;27.57;;;-0.70;99.90;;;;;;4417295;28;658241;-71
2022/04/10 00:25:52;;;;;;;57.20;26.40;;;-0.80;99.90;;;;;;4395990;28;659624;-71
2022/04/10 00:28:41;;;;;;;55.30;26.67;;;-0.80;99.90;;;;;;4418330;28;658243;-71
2022/04/10 00:31:29;;;;;;;60.00;26.35;;;-0.80;99.90;;;;;;4398849;28;659892;-71
2022/04/10 00:34:16;;;;;;;59.50;27.87;;;-0.80;99.90;;;;;;4399457;28;658664;-71
2022/04/10 00:37:04;;;;;;;58.30;26.20;;;-0.80;99.90;;;;;;4423551;28;658916;-71
2022/04/10 00:39:51;;;;;;;58.40;28.47;;;-0.90;99.90;;;;;;4405416;28;659380;-71
2022/04/10 00:42:39;;;;;;;58.83;27.47;;;-1.00;99.90;;;;;;4425239;28;659016;-71
2022/04/10 00:45:28;;;;;;;63.37;25.77;;;-1.00;99.90;;;;;;4392433;28;658681;-71
2022/04/10 00:48:15;;;;;;;56.83;26.10;;;-1.10;99.90;;;;;;4395468;28;658529;-71
2022/04/10 00:54:09;;;;;;;57.10;25.90;;;-1.10;99.90;;;;;;4366917;28;659429;-71
2022/04/10 00:56:56;;;;;;;54.10;25.13;;;-1.20;99.90;;;;;;4391573;28;658864;-71
2022/04/10 00:59:44;;;;;;;59.27;26.70;;;-1.20;99.90;;;;;;4410608;28;659356;-71
2022/04/10 01:02:32;;;;;;;54.53;25.87;;;-1.20;99.90;;;;;;4392189;28;658999;-70
2022/04/10 01:05:20;;;;;;;64.57;26.03;;;-1.20;99.90;;;;;;4402792;28;661070;-71
2022/04/10 01:08:08;;;;;;;57.70;26.03;;;-1.20;99.90;;;;;;4408924;28;659683;-71
2022/04/10 01:10:55;;;;;;;61.37;26.37;;;-1.20;99.90;;;;;;4388761;28;660035;-71
2022/04/10 01:13:43;;;;;;;49.80;26.23;;;-1.20;99.90;;;;;;4408986;28;659740;-71
2022/04/10 01:16:30;;;;;;;53.23;25.50;;;-1.10;99.90;;;;;;4398890;28;659164;-71
2022/04/10 01:19:19;;;;;;;57.77;25.67;;;-1.20;99.90;;;;;;4411080;28;659492;-71
2022/04/10 01:22:07;;;;;;;58.13;25.20;;;-1.10;99.90;;;;;;4391402;28;658961;-71
2022/04/10 01:24:56;;;;;;;54.67;26.60;;;-0.90;99.90;;;;;;4412984;28;659238;-71
2022/04/10 01:27:43;;;;;;;60.07;26.13;;;-0.80;99.90;;;;;;4399637;28;659374;-71
2022/04/10 01:30:31;;;;;;;62.30;27.50;;;-0.90;99.90;;;;;;4395231;28;659279;-71
2022/04/10 01:33:18;;;;;;;54.73;25.30;;;-0.80;99.90;;;;;;4414549;28;659464;-71
2022/04/10 01:36:06;;;;;;;63.03;26.97;;;-0.80;99.90;;;;;;4392285;28;659025;-71
2022/04/10 01:38:54;;;;;;;59.13;25.33;;;-0.80;99.90;;;;;;4410361;28;659012;-71
2022/04/10 01:41:42;;;;;;;59.90;26.70;;;-0.90;99.90;;;;;;4397600;28;658571;-71
2022/04/10 01:44:30;;;;;;;58.87;27.40;;;-0.80;99.90;;;;;;4412352;28;659032;-71
2022/04/10 01:47:17;;;;;;;59.87;28.47;;;-0.80;99.90;;;;;;4398321;28;659746;-71
2022/04/10 01:50:05;;;;;;;60.10;29.27;;;-0.70;99.90;;;;;;4423274;28;658159;-71
2022/04/10 01:52:52;;;;;;;64.72;29.27;;;-0.60;99.90;;;;;;4403063;28;659517;-71
2022/04/10 01:55:40;;;;;;;62.30;29.10;;;-0.40;99.90;;;;;;4413854;28;658506;-71
2022/04/10 01:58:29;;;;;;;61.17;30.43;;;-0.40;99.90;;;;;;4420298;28;660456;-71
2022/04/10 02:01:17;;;;;;;57.47;30.30;;;-0.20;99.90;;;;;;4398785;28;658992;-71
2022/04/10 02:04:05;;;;;;;67.67;31.47;;;-0.20;99.90;;;;;;4426594;28;659355;-71
2022/04/10 02:06:52;;;;;;;61.90;30.20;;;-0.20;99.90;;;;;;4401205;28;659313;-71
2022/04/10 02:09:39;;;;;;;62.17;29.70;;;-0.10;99.90;;;;;;4421417;28;659051;-71
2022/04/10 02:12:26;;;;;;;56.87;29.00;;;-0.10;99.90;;;;;;4396170;28;659581;-71
2022/04/10 02:15:15;;;;;;;52.70;26.67;;;-0.10;99.90;;;;;;4416943;28;658892;-71
2022/04/10 02:18:03;;;;;;;57.83;29.93;;;-0.10;99.90;;;;;;4395872;28;658905;-71
2022/04/10 02:20:51;;;;;;;63.57;30.03;;;-0.20;99.90;;;;;;4414158;28;658405;-71
2022/04/10 02:23:38;;;;;;;63.43;30.30;;;-0.30;99.90;;;;;;4416980;28;660123;-71
2022/04/10 02:26:26;;;;;;;61.30;29.70;;;-0.40;99.90;;;;;;4399144;28;659264;-71
2022/04/10 02:29:13;;;;;;;58.10;28.92;;;-0.50;99.90;;;;;;4421384;28;659809;-71
2022/04/10 02:32:02;;;;;;;55.75;28.65;;;-0.60;99.90;;;;;;4402178;28;659215;-71
2022/04/10 02:34:49;;;;;;;59.40;28.87;;;-0.70;99.90;;;;;;4424439;28;658649;-71
2022/04/10 02:37:37;;;;;;;61.00;29.07;;;-0.70;99.90;;;;;;4395440;28;658822;-71
2022/04/10 02:40:24;;;;;;;55.27;27.50;;;-0.70;99.90;;;;;;4418930;28;658695;-71
2022/04/10 02:43:13;;;;;;;57.45;28.65;;;-0.80;99.90;;;;;;4395269;28;659018;-72
2022/04/10 02:46:01;;;;;;;56.17;26.80;;;-0.70;99.90;;;;;;4401577;28;658670;-71
2022/04/10 02:48:50;;;;;;;54.13;26.50;;;-0.60;99.90;;;;;;4418590;28;659608;-71
2022/04/10 02:51:37;;;;;;;54.50;27.60;;;-0.50;99.90;;;;;;4398710;28;659124;-71
2022/04/10 02:54:24;;;;;;;56.87;27.80;;;-0.40;99.90;;;;;;4413049;28;658429;-71
2022/04/10 02:57:11;;;;;;;62.47;28.90;;;-0.60;99.90;;;;;;4388018;28;658602;-71
2022/04/10 02:59:59;;;;;;;52.50;28.17;;;-0.70;99.90;;;;;;4416634;28;658734;-71
2022/04/10 03:02:47;;;;;;;63.90;29.00;;;-0.70;99.90;;;;;;4402193;28;659027;-71
2022/04/10 03:05:36;;;;;;;56.00;28.33;;;-0.80;99.90;;;;;;4416797;28;658441;-71
2022/04/10 03:08:23;;;;;;;56.53;28.02;;;-0.90;99.90;;;;;;4384171;28;659544;-71
2022/04/10 03:11:11;;;;;;;54.17;26.83;;;-1.00;99.90;;;;;;4398492;28;658408;-71
2022/04/10 03:13:58;;;;;;;52.67;26.30;;;-1.00;99.90;;;;;;4415707;28;658618;-71
2022/04/10 03:16:45;;;;;;;51.22;26.50;;;-1.10;99.90;;;;;;4391615;28;658501;-71
2022/04/10 03:19:33;;;;;;;50.37;25.10;;;-1.30;99.90;;;;;;4407622;28;659731;-71
2022/04/10 03:22:22;;;;;;;49.27;24.57;;;-1.30;99.90;;;;;;4394211;28;658388;-71
2022/04/10 03:25:09;;;;;;;54.90;26.27;;;-1.40;99.90;;;;;;4408128;28;659129;-71
2022/04/10 03:27:57;;;;;;;50.43;25.03;;;-1.40;99.90;;;;;;4390170;28;659599;-71
2022/04/10 03:30:45;;;;;;;55.20;25.43;;;-1.50;99.90;;;;;;4408621;28;658548;-71
2022/04/10 03:33:32;;;;;;;50.40;24.80;;;-1.50;99.90;;;;;;4382473;28;660806;-72
2022/04/10 03:36:19;;;;;;;53.63;26.40;;;-1.60;99.90;;;;;;4406311;28;658966;-71
2022/04/10 03:39:08;;;;;;;55.60;24.93;;;-1.60;99.90;;;;;;4387696;28;658936;-71
2022/04/10 03:41:55;;;;;;;48.07;23.87;;;-1.60;99.90;;;;;;4388551;28;659348;-71
2022/04/10 03:44:43;;;;;;;57.70;26.93;;;-1.60;99.90;;;;;;4409864;28;659480;-71
2022/04/10 03:47:30;;;;;;;49.90;25.37;;;-1.60;99.90;;;;;;4399039;28;658528;-71
2022/04/10 03:50:18;;;;;;;60.17;28.03;;;-1.40;99.90;;;;;;4411923;28;659939;-71
2022/04/10 03:53:05;;;;;;;58.60;27.10;;;-1.30;99.90;;;;;;4400637;28;658702;-71
2022/04/10 03:55:54;;;;;;;54.60;27.67;;;-1.40;99.90;;;;;;4419912;28;659466;-71
2022/04/10 03:58:42;;;;;;;52.37;27.47;;;-1.40;99.90;;;;;;4383742;28;658794;-71
2022/04/10 04:01:29;;;;;;;56.07;26.20;;;-1.50;99.90;;;;;;4417067;28;658292;-71
2022/04/10 04:04:17;;;;;;;50.40;26.20;;;-1.70;99.90;;;;;;4391244;28;658784;-70
2022/04/10 04:07:04;;;;;;;53.47;25.83;;;-1.70;99.90;;;;;;4412768;28;658122;-71
2022/04/10 04:09:52;;;;;;;50.23;26.17;;;-1.70;99.90;;;;;;4394887;28;658704;-71
2022/04/10 04:12:40;;;;;;;55.57;26.30;;;-1.80;99.90;;;;;;4405404;28;658482;-71
2022/04/10 04:15:28;;;;;;;57.33;27.73;;;-1.80;99.90;;;;;;4387982;28;659657;-71
2022/04/10 04:18:15;;;;;;;55.90;26.30;;;-1.80;99.90;;;;;;4387829;28;658423;-71
2022/04/10 04:21:03;;;;;;;57.27;26.50;;;-1.80;99.90;;;;;;4408814;28;660172;-71
2022/04/10 04:23:51;;;;;;;55.50;27.63;;;-1.70;99.90;;;;;;4403119;28;659081;-71
2022/04/10 04:26:38;;;;;;;59.33;29.70;;;-1.80;99.90;;;;;;4415143;28;659518;-71
2022/04/10 04:29:27;;;;;;;58.00;30.07;;;-1.80;99.90;;;;;;4394888;28;659161;-71
2022/04/10 04:32:14;;;;;;;64.57;32.20;;;-1.70;99.90;;;;;;4407240;28;659377;-70
2022/04/10 04:35:02;;;;;;;73.63;35.33;;;-1.70;99.90;;;;;;4393167;28;659342;-71
2022/04/10 04:37:50;;;;;;;75.77;35.67;;;-1.60;99.90;;;;;;4412545;28;658483;-71
2022/04/10 04:40:37;;;;;;;74.97;37.20;;;-1.50;99.90;;;;;;4385735;28;659722;-71
2022/04/10 04:43:24;;;;;;;93.47;39.00;;;-1.50;99.90;;;;;;4402487;28;658807;-71
2022/04/10 04:46:13;;;;;;;91.37;40.77;;;-1.30;99.90;;;;;;4385070;28;658801;-71
2022/04/10 04:49:01;;;;;;;102.60;43.67;;;-1.10;99.90;;;;;;4385697;28;658735;-71
2022/04/10 04:51:48;;;;;;;103.30;44.07;;;-1.00;99.90;;;;;;4404451;28;660660;-72
2022/04/10 04:54:35;;;;;;;108.17;45.13;;;-0.80;99.90;;;;;;4390688;28;659959;-71
2022/04/10 04:57:23;;;;;;;102.73;43.37;;;-0.70;99.90;;;;;;4411526;28;660698;-72
2022/04/10 05:00:11;;;;;;;98.00;41.97;;;-0.70;99.90;;;;;;4407912;28;660393;-72
2022/04/10 05:03:00;;;;;;;101.40;43.73;;;-0.50;99.90;;;;;;4413073;28;659037;-71
2022/04/10 05:05:48;;;;;;;96.10;42.27;;;-0.50;99.90;;;;;;4392129;28;660876;-72
2022/04/10 05:08:35;;;;;;;104.17;44.03;;;-0.40;99.90;;;;;;4407065;28;659035;-72
2022/04/10 05:11:23;;;;;;;106.43;43.67;;;-0.30;99.90;;;;;;4408343;28;660536;-72
2022/04/10 05:14:11;;;;;;;108.70;44.83;;;-0.20;99.90;;;;;;4394682;28;659977;-72
2022/04/10 05:16:58;;;;;;;88.50;40.88;;;-0.20;99.90;;;;;;4418380;28;660015;-72
2022/04/10 05:19:47;;;;;;;96.05;41.83;;;-0.10;99.90;;;;;;4393024;28;658970;-72
2022/04/10 05:22:34;;;;;;;92.60;40.37;;;0.00;99.90;;;;;;4416053;28;658706;-72
2022/04/10 05:25:21;;;;;;;91.07;41.20;;;0.10;99.90;;;;;;4393446;28;657517;-72
2022/04/10 05:28:09;;;;;;;88.63;40.03;;;0.20;99.90;;;;;;4409199;28;658598;-72
2022/04/10 05:30:56;;;;;;;83.90;39.87;;;0.20;99.90;;;;;;4405142;28;657686;-72
2022/04/10 05:33:43;;;;;;;79.07;38.00;;;0.30;99.90;;;;;;4425274;28;658411;-72
2022/04/10 05:36:32;;;;;;;73.23;38.23;;;0.40;99.90;;;;;;4402027;28;657864;-72
2022/04/10 05:39:19;;;;;;;70.03;39.17;;;0.50;99.90;;;;;;4415924;28;657820;-72
2022/04/10 05:42:08;;;;;;;75.40;39.33;;;0.50;99.90;;;;;;4395404;28;659612;-72
2022/04/10 05:45:01;;;;;;;80.37;42.23;;;0.60;99.90;;;;;;4396256;28;657488;-72
2022/04/10 05:47:48;;;;;;;87.07;45.47;;;0.60;99.90;;;;;;4400252;28;658476;-72
2022/04/10 05:50:36;;;;;;;71.23;38.87;;;0.70;99.90;;;;;;4398650;28;657514;-72
2022/04/10 05:53:24;;;;;;;85.60;46.90;;;0.70;99.90;;;;;;4415564;28;658251;-72
2022/04/10 05:56:12;;;;;;;94.53;49.57;;;0.90;99.90;;;;;;4407763;28;657445;-73
2022/04/10 05:58:59;;;;;;;96.30;48.03;;;0.90;99.90;;;;;;4421084;28;657779;-72
2022/04/10 06:01:46;;;;;;;82.07;44.30;;;1.00;99.90;;;;;;4401240;28;657933;-72
2022/04/10 06:04:34;;;;;;;78.77;41.57;;;0.90;99.90;;;;;;4415265;28;657827;-72
2022/04/10 06:07:21;;;;;;;86.73;45.00;;;0.90;99.90;;;;;;4392905;28;657923;-72
2022/04/10 06:10:10;;;;;;;86.37;43.83;;;1.00;99.90;;;;;;4415835;28;657450;-72
2022/04/10 06:13:07;;;;;;;87.63;46.80;;;1.00;99.90;;;;;;4404928;28;658582;-72
2022/04/10 06:15:55;;;;;;;82.17;46.00;;;1.10;99.90;;;;;;4400460;28;658112;-72
2022/04/10 06:18:42;;;;;;;76.07;40.90;;;1.30;99.90;;;;;;4400373;28;657412;-72
2022/04/10 06:21:29;;;;;;;81.23;44.27;;;1.30;99.90;;;;;;4415651;28;657392;-72
2022/04/10 06:24:17;;;;;;;89.33;46.83;;;1.30;99.90;;;;;;4390263;28;658666;-72
2022/04/10 06:27:05;;;;;;;92.87;47.40;;;1.50;99.90;;;;;;4419866;28;657752;-72
2022/04/10 06:29:53;;;;;;;85.07;45.90;;;1.50;99.90;;;;;;4398313;28;658808;-72
2022/04/10 06:32:41;;;;;;;85.83;46.60;;;1.50;99.90;;;;;;4402244;28;657532;-71
2022/04/10 06:36:06;;;;;;;80.03;43.87;;;1.50;99.90;;;;;;4412612;28;658121;-71
2022/04/10 06:38:53;;;;;;;85.90;46.47;;;1.60;99.90;;;;;;4397365;28;658649;-70
2022/04/10 06:41:40;;;;;;;82.37;42.70;;;1.70;99.90;;;;;;4399088;28;658133;-70
2022/04/10 06:44:29;;;;;;;75.67;41.33;;;1.70;99.90;;;;;;4408895;28;658175;-70
2022/04/10 06:47:17;;;;;;;75.70;42.43;;;1.80;99.90;;;;;;4388423;28;657906;-70
2022/04/10 06:50:04;;;;;;;69.30;34.57;;;1.80;99.90;;;;;;4418373;28;658833;-70
2022/04/10 06:52:52;;;;;;;60.33;34.83;;;1.70;99.90;;;;;;4402356;28;658208;-70
2022/04/10 06:55:39;;;;;;;51.87;26.23;;;1.90;99.90;;;;;;4418404;28;657423;-69
2022/04/10 06:58:26;;;;;;;58.83;31.88;;;1.90;99.90;;;;;;4393219;28;657729;-70
2022/04/10 07:01:15;;;;;;;45.70;25.87;;;1.80;99.90;;;;;;4422725;28;657871;-69
2022/04/10 07:04:02;;;;;;;53.40;32.03;;;1.80;99.90;;;;;;4399427;28;657478;-69
2022/04/10 07:06:50;;;;;;;57.60;32.53;;;1.80;99.90;;;;;;4411774;28;657695;-70
2022/04/10 07:09:38;;;;;;;49.07;27.87;;;1.90;99.90;;;;;;4411512;28;658076;-70
2022/04/10 07:12:25;;;;;;;54.00;30.58;;;1.80;99.90;;;;;;4398555;28;657433;-70
2022/04/10 07:15:13;;;;;;;53.13;29.57;;;2.00;99.90;;;;;;4410463;28;658136;-70
2022/04/10 07:18:02;;;;;;;48.50;26.60;;;2.10;99.90;;;;;;4400045;28;657511;-69
2022/04/10 07:20:49;;;;;;;44.65;22.95;;;2.00;99.90;;;;;;4409516;28;657974;-69
2022/04/10 07:23:45;;;;;;;48.45;26.15;;;2.00;99.90;;;;;;4400619;28;657673;-69
2022/04/10 07:26:33;;;;;;;51.60;27.03;;;2.00;99.90;;;;;;4396782;28;658232;-70
2022/04/10 07:29:21;;;;;;;42.67;24.23;;;2.20;99.90;;;;;;4408629;28;658701;-69
2022/04/10 07:32:09;;;;;;;52.93;27.30;;;2.40;99.90;;;;;;4413962;28;658657;-70
2022/04/10 07:34:57;;;;;;;44.37;25.70;;;2.60;99.90;;;;;;4396979;28;657930;-69
2022/04/10 07:37:45;;;;;;;41.73;23.13;;;2.70;99.90;;;;;;4413039;28;657378;-69
2022/04/10 07:40:33;;;;;;;39.90;22.87;;;2.70;99.90;;;;;;4422192;28;658388;-70
2022/04/10 07:43:20;;;;;;;35.23;20.20;;;3.00;99.90;;;;;;4399260;28;658133;-69
2022/04/10 07:49:12;;;;;;;29.27;16.07;;;3.30;99.90;;;;;;4361634;28;658423;-69
2022/04/10 07:52:01;;;;;;;22.80;13.83;;;3.40;99.90;;;;;;4419199;28;657463;-69
2022/04/10 07:54:49;;;;;;;27.27;13.77;;;3.40;99.90;;;;;;4392934;28;657907;-69
2022/04/10 07:57:36;;;;;;;41.27;16.53;;;3.40;99.90;;;;;;4391698;28;657392;-69
2022/04/10 08:00:23;;;;;;;33.60;15.40;;;3.30;99.90;;;;;;4414757;28;658824;-69
2022/04/10 08:03:11;;;;;;;33.97;16.90;;;3.30;99.90;;;;;;4398509;28;658317;-69
2022/04/10 08:05:58;;;;;;;31.57;16.27;;;3.30;99.90;;;;;;4417244;28;658125;-70
2022/04/10 08:08:47;;;;;;;34.43;16.50;;;3.30;99.90;;;;;;4399347;28;658111;-69
2022/04/10 08:11:34;;;;;;;33.17;17.83;;;3.30;99.90;;;;;;4417769;28;657529;-69
2022/04/10 08:14:22;;;;;;;30.40;15.83;;;3.30;99.90;;;;;;4387791;28;658080;-69
2022/04/10 08:17:11;;;;;;;24.93;13.77;;;3.50;99.90;;;;;;4409907;28;657766;-69
2022/04/10 08:19:59;;;;;;;34.30;15.77;;;3.50;99.90;;;;;;4390697;28;657847;-69
2022/04/10 08:22:49;;;;;;;21.67;10.30;;;3.40;99.90;;;;;;4404839;28;657578;-69
2022/04/10 08:25:37;;;;;;;26.63;12.53;;;3.20;99.90;;;;;;4408980;28;657848;-69
2022/04/10 08:28:25;;;;;;;21.80;9.63;;;3.50;99.90;;;;;;4429338;28;657403;-69
2022/04/10 08:31:12;;;;;;;14.37;8.93;;;3.50;99.90;;;;;;4392619;28;657986;-70
2022/04/10 08:33:59;;;;;;;28.77;9.00;;;3.70;99.90;;;;;;4413367;28;658832;-69
2022/04/10 08:36:47;;;;;;;21.43;7.87;;;3.60;99.90;;;;;;4393374;28;657086;-70
2022/04/10 08:39:34;;;;;;;16.37;7.83;;;3.70;99.90;;;;;;4420141;28;657017;-69
2022/04/10 08:42:23;;;;;;;15.60;7.33;;;3.80;99.90;;;;;;4401900;28;656472;-69
2022/04/10 08:45:10;;;;;;;13.53;7.20;;;4.20;99.90;;;;;;4401357;28;656976;-69
2022/04/10 08:47:58;;;;;;;26.83;8.07;;;4.50;99.90;;;;;;4419744;28;657134;-70
2022/04/10 08:50:45;;;;;;;14.77;6.93;;;4.60;99.90;;;;;;4392905;28;656852;-70
2022/04/10 08:53:33;;;;;;;19.23;5.83;;;4.40;99.90;;;;;;4411057;28;657821;-70
2022/04/10 08:56:22;;;;;;;20.70;8.47;;;4.20;99.90;;;;;;4393317;28;656608;-69
2022/04/10 08:59:10;;;;;;;13.60;7.07;;;4.50;99.90;;;;;;4410433;28;657233;-70
2022/04/10 09:01:58;;;;;;;16.60;7.40;;;4.60;99.90;;;;;;4386555;28;657283;-68
2022/04/10 09:04:45;;;;;;;16.07;7.10;;;4.50;99.90;;;;;;4399969;28;658908;-69
2022/04/10 09:07:33;;;;;;;11.53;5.60;;;4.70;99.90;;;;;;4414678;28;658051;-69
2022/04/10 09:10:20;;;;;;;14.83;6.00;;;4.80;99.90;;;;;;4397821;28;656919;-69
2022/04/10 09:13:08;;;;;;;13.83;5.53;;;5.50;99.90;;;;;;4419143;28;657172;-69
2022/04/10 09:16:10;;;;;;;8.23;3.33;;;6.30;99.90;;;;;;4392159;28;656202;-69
2022/04/10 09:19:00;;;;;;;10.47;4.37;;;6.10;99.90;;;;;;4392985;28;655252;-69
2022/04/10 09:21:47;;;;;;;11.80;4.77;;;5.50;99.90;;;;;;4392634;28;657311;-70
2022/04/10 09:24:34;;;;;;;13.50;5.13;;;5.10;99.90;;;;;;4414304;28;656461;-68
2022/04/10 09:27:30;;;;;;;18.20;5.43;;;4.90;99.90;;;;;;4392929;28;657370;-69
2022/04/10 09:30:18;;;;;;;12.53;4.90;;;5.00;99.90;;;;;;4383705;28;657357;-68
2022/04/10 09:33:08;;;;;;;13.13;5.40;;;4.70;99.90;;;;;;4404696;28;657434;-68
2022/04/10 09:35:56;;;;;;;9.13;4.03;;;4.60;99.90;;;;;;4384935;28;656926;-68
2022/04/10 09:38:45;;;;;;;10.67;5.30;;;4.00;99.90;;;;;;4421758;28;655777;-68
2022/04/10 09:41:33;;;;;;;14.80;6.20;;;3.70;99.90;;;;;;4405677;28;657152;-68
2022/04/10 09:44:21;;;;;;;16.40;6.50;;;3.70;99.90;;;;;;4406107;28;656779;-68
2022/04/10 09:47:09;;;;;;;17.50;7.20;;;3.80;99.90;;;;;;4415005;28;656946;-69
2022/04/10 09:50:05;;;;;;;13.43;6.90;;;4.20;99.90;;;;;;4403450;28;656284;-69
2022/04/10 09:52:52;;;;;;;9.93;4.60;;;4.70;99.90;;;;;;4360159;28;657681;-69
2022/04/10 09:55:40;;;;;;;14.20;5.87;;;4.60;99.90;;;;;;4415781;28;655657;-69
2022/04/10 09:58:28;;;;;;;10.57;5.40;;;5.10;99.90;;;;;;4386922;28;657343;-69
2022/04/10 10:01:17;;;;;;;10.80;5.87;;;5.90;99.90;;;;;;4391851;28;656548;-69
2022/04/10 10:04:05;;;;;;;12.50;4.90;;;6.50;99.90;;;;;;4413156;28;656500;-69
2022/04/10 10:06:53;;;;;;;8.37;2.47;;;7.30;99.90;;;;;;4386192;28;657758;-69
2022/04/10 10:09:41;;;;;;;14.20;4.97;;;7.00;99.90;;;;;;4386268;28;655799;-69
2022/04/10 10:12:28;;;;;;;10.40;4.10;;;6.40;99.90;;;;;;4399695;28;656828;-69
2022/04/10 10:15:16;;;;;;;12.43;4.60;;;6.50;99.90;;;;;;4385673;28;656759;-69
2022/04/10 10:18:04;;;;;;;8.20;3.63;;;6.70;99.90;;;;;;4409235;28;657547;-69
2022/04/10 10:20:52;;;;;;;7.17;3.40;;;6.70;98.20;;;;;;4384959;28;655524;-69
2022/04/10 10:23:42;;;;;;;9.10;3.27;;;6.50;96.00;;;;;;4407730;28;657248;-69
2022/04/10 10:26:37;;;;;;;7.27;3.10;;;6.00;95.40;;;;;;4386231;28;655715;-69
2022/04/10 10:29:54;;;;;;;6.67;3.77;;;5.90;93.80;;;;;;4388088;28;655939;-69
2022/04/10 10:32:42;;;;;;;6.03;2.97;;;5.90;93.20;;;;;;4394350;28;655481;-69
2022/04/10 10:35:34;;;;;;;8.30;3.03;;;6.20;93.30;;;;;;4416750;28;655081;-69
2022/04/10 10:38:22;;;;;;;7.83;3.20;;;6.10;93.10;;;;;;4373273;28;656162;-69
2022/04/10 10:41:31;;;;;;;6.73;2.97;;;6.40;94.00;;;;;;4413477;28;656042;-69
2022/04/10 10:44:34;;;;;;;8.90;3.27;;;6.20;92.60;;;;;;4384795;28;655982;-69
2022/04/10 10:47:23;;;;;;;10.20;2.50;;;6.50;93.00;;;;;;4382606;28;655031;-69
2022/04/10 10:50:26;;;;;;;6.07;2.43;;;6.50;90.70;;;;;;4383950;28;656559;-69
2022/04/10 10:53:13;;;;;;;6.33;2.70;;;6.60;90.90;;;;;;4384046;28;655961;-69
2022/04/10 10:56:01;;;;;;;7.23;3.67;;;6.10;92.90;;;;;;4398994;28;655901;-69
2022/04/10 10:58:50;;;;;;;11.60;3.87;;;5.40;99.90;;;;;;4420058;28;656437;-69
2022/04/10 11:01:37;;;;;;;10.87;4.00;;;5.00;99.90;;;;;;4392671;28;657367;-69
2022/04/10 11:04:28;;;;;;;9.40;4.43;;;5.10;99.90;;;;;;4415913;28;656721;-68
2022/04/10 11:07:22;;;;;;;13.40;4.60;;;5.10;99.90;;;;;;4384002;28;655475;-69
2022/04/10 11:10:10;;;;;;;10.10;4.77;;;5.10;99.90;;;;;;4395139;28;656394;-69
2022/04/10 11:13:01;;;;;;;13.17;5.17;;;5.60;99.90;;;;;;4397256;28;658024;-69
2022/04/10 11:15:52;;;;;;;10.68;4.40;;;6.00;99.90;;;;;;4393544;28;657611;-69
2022/04/10 11:18:42;;;;;;;9.77;3.50;;;6.70;99.90;;;;;;4396413;28;657498;-69
2022/04/10 11:21:31;;;;;;;6.83;2.83;;;6.90;97.50;;;;;;4395132;28;655761;-69
2022/04/10 11:24:23;;;;;;;8.17;3.40;;;7.40;91.90;;;;;;4397479;28;656307;-69
2022/04/10 11:27:13;;;;;;;9.13;2.90;;;7.80;90.00;;;;;;4379224;28;655684;-70
2022/04/10 11:30:03;;;;;;;6.65;3.05;;;7.60;84.80;;;;;;4406296;28;655460;-69
2022/04/10 11:32:53;;;;;;;7.63;3.23;;;6.90;86.10;;;;;;4404465;28;655544;-69
2022/04/10 11:35:41;;;;;;;9.63;2.80;;;6.00;88.00;;;;;;4394465;28;655605;-69
2022/04/10 11:38:28;;;;;;;9.07;3.10;;;6.40;95.70;;;;;;4416051;28;656320;-69
2022/04/10 11:41:16;;;;;;;7.57;2.90;;;6.50;90.30;;;;;;4395176;28;655535;-69
2022/04/10 11:44:03;;;;;;;8.93;3.00;;;6.90;90.50;;;;;;4419200;28;656185;-69
2022/04/10 11:46:51;;;;;;;7.33;2.90;;;7.00;85.20;;;;;;4400338;28;655965;-69
2022/04/10 11:49:39;;;;;;;11.17;3.40;;;7.80;86.00;;;;;;4421162;28;657659;-69
2022/04/10 11:52:27;;;;;;;5.70;2.57;;;7.20;87.10;;;;;;4403026;28;657140;-69
2022/04/10 11:55:14;;;;;;;7.17;3.70;;;6.60;86.20;;;;;;4417830;28;655022;-69
2022/04/10 11:58:02;;;;;;;6.28;2.95;;;6.50;90.90;;;;;;4401773;28;655616;-69
2022/04/10 12:00:51;;;;;;;8.87;3.20;;;6.80;93.00;;;;;;4418733;28;655283;-69
2022/04/10 12:03:40;;;;;;;7.40;3.27;;;7.60;99.90;;;;;;4393338;28;656272;-69
2022/04/10 12:06:28;;;;;;;13.03;3.30;;;7.60;90.80;;;;;;4395241;28;656699;-69
2022/04/10 12:09:16;;;;;;;8.73;3.60;;;7.70;90.90;;;;;;4405817;28;656622;-69
2022/04/10 12:12:04;;;;;;;9.10;3.10;;;8.40;90.10;;;;;;4426011;28;656296;-70
2022/04/10 12:14:51;;;;;;;8.40;3.30;;;10.00;85.60;;;;;;4393110;28;655989;-70
2022/04/10 12:17:39;;;;;;;12.73;3.37;;;9.40;79.70;;;;;;4408446;28;657636;-69
2022/04/10 12:20:27;;;;;;;9.17;3.07;;;7.60;77.90;;;;;;4400349;28;656572;-69
2022/04/10 12:23:20;;;;;;;9.17;3.77;;;8.90;83.00;;;;;;4425089;28;655112;-69
2022/04/10 12:26:07;;;;;;;8.07;3.17;;;7.90;81.20;;;;;;4376989;28;655872;-69
2022/04/10 12:29:09;;;;;;;4.87;2.97;;;7.10;78.10;;;;;;4424167;28;655590;-69
2022/04/10 12:31:56;;;;;;;8.70;3.17;;;6.80;82.50;;;;;;4396734;28;656034;-69
2022/04/10 12:34:44;;;;;;;7.30;3.30;;;7.10;84.30;;;;;;4409996;28;656713;-68
2022/04/10 12:37:31;;;;;;;5.83;2.90;;;6.30;93.40;;;;;;4397784;28;655393;-68
2022/04/10 12:40:27;;;;;;;9.73;4.20;;;5.00;99.90;;;;;;4425578;28;655807;-69
2022/04/10 12:43:15;;;;;;;12.17;4.50;;;5.10;99.90;;;;;;4387719;28;656009;-68
2022/04/10 12:46:08;;;;;;;10.57;3.40;;;4.90;99.90;;;;;;4394897;28;657163;-68
2022/04/10 12:49:09;;;;;;;3.00;1.57;;;4.80;99.90;;;;;;4374055;28;656923;-68
2022/04/10 12:51:59;;;;;;;4.43;1.47;;;4.90;99.90;;;;;;4368747;28;656134;-68
2022/04/10 12:54:47;;;;;;;2.47;1.40;;;5.30;99.90;;;;;;4390889;28;655719;-68
2022/04/10 12:57:36;;;;;;;2.67;1.90;;;5.40;99.90;;;;;;4423088;28;655641;-69
2022/04/10 13:00:28;;;;;;;3.30;2.30;;;6.00;99.90;;;;;;4397259;28;656018;-69
2022/04/10 13:03:19;;;;;;;6.40;2.30;;;6.30;99.90;;;;;;4383860;28;656177;-69
2022/04/10 13:06:07;;;;;;;5.13;2.03;;;6.70;96.80;;;;;;4404664;28;656943;-69
2022/04/10 13:09:12;;;;;;;3.93;2.20;;;7.20;96.50;;;;;;4414788;28;655708;-69
2022/04/10 13:11:59;;;;;;;6.47;2.30;;;7.80;92.40;;;;;;4401415;28;655707;-69
2022/04/10 13:14:51;;;;;;;3.93;2.10;;;7.70;85.90;;;;;;4403489;28;656185;-69
2022/04/10 13:17:39;;;;;;;4.87;2.20;;;7.70;90.60;;;;;;4394256;28;656162;-69
2022/04/10 13:20:27;;;;;;;3.47;2.20;;;7.90;83.10;;;;;;4388040;28;655282;-69
2022/04/10 13:23:14;;;;;;;4.53;2.73;;;9.10;79.60;;;;;;4414056;28;655592;-69
2022/04/10 13:26:02;;;;;;;3.73;2.20;;;8.80;79.20;;;;;;4399563;28;655219;-69
2022/04/10 13:28:49;;;;;;;6.17;2.93;;;7.90;82.40;;;;;;4410189;28;655170;-69
2022/04/10 13:31:38;;;;;;;6.85;3.45;;;7.30;88.00;;;;;;4388755;28;655679;-69
2022/04/10 13:34:25;;;;;;;8.17;3.87;;;6.60;91.90;;;;;;4380932;28;656904;-68
2022/04/10 13:37:13;;;;;;;5.97;3.30;;;5.40;99.90;;;;;;4410621;28;656407;-68
2022/04/10 13:40:01;;;;;;;5.97;4.33;;;5.10;99.90;;;;;;4416314;28;655835;-68
2022/04/10 13:42:49;;;;;;;8.23;4.70;;;4.70;99.90;;;;;;4429703;28;655136;-68
2022/04/10 13:45:36;;;;;;;8.40;3.60;;;4.00;99.90;;;;;;4400109;28;656020;-68
2022/04/10 13:48:25;;;;;;;8.27;4.55;;;3.40;99.90;;;;;;4420519;28;656641;-68
2022/04/10 13:51:13;;;;;;;7.73;4.17;;;3.20;99.90;;;;;;4395162;28;657331;-68
2022/04/10 13:54:01;;;;;;;4.97;3.90;;;3.10;99.90;;;;;;4381477;28;655421;-68
2022/04/10 13:56:49;;;;;;;7.33;4.10;;;3.10;1.00;;;;;;4398475;28;656481;-68
2022/04/10 13:59:36;;;;;;;4.10;3.13;;;3.30;1.00;;;;;;4379265;28;654511;-68
2022/04/10 14:02:23;;;;;;;4.13;3.13;;;3.60;19.30;;;;;;4402204;28;655525;-68
2022/04/10 14:05:12;;;;;;;4.70;2.60;;;4.70;99.90;;;;;;4378769;28;655466;-68
2022/04/10 14:07:59;;;;;;;5.90;2.80;;;5.50;1.00;;;;;;4398269;28;655844;-69
2022/04/10 14:10:47;;;;;;;8.73;3.90;;;6.70;99.90;;;;;;4396146;28;654765;-69
2022/04/10 14:13:34;;;;;;;9.93;4.30;;;8.20;99.90;;;;;;4412110;28;655133;-69
2022/04/10 14:16:22;;;;;;;8.40;4.50;;;8.00;1.00;;;;;;4383995;28;655377;-69
2022/04/10 14:19:09;;;;;;;8.20;4.13;;;7.90;87.50;;;;;;4420330;28;653924;-69
2022/04/10 14:21:58;;;;;;;5.82;2.83;;;8.30;99.90;;;;;;4379327;28;655457;-69
2022/04/10 14:24:46;;;;;;;5.68;3.40;;;8.10;1.00;;;;;;4383250;28;655715;-69